createdAt,value
2017-04-25T00:00:40.028Z,0
2017-04-25T00:02:01.600Z,0
2017-04-25T00:03:23.774Z,0
2017-04-25T00:04:45.650Z,0
2017-04-25T00:06:07.608Z,0
2017-04-25T00:07:29.828Z,0
2017-04-25T00:08:51.746Z,0
2017-04-25T00:10:13.983Z,0
2017-04-25T00:11:35.358Z,0
2017-04-25T00:12:57.279Z,0
2017-04-25T00:14:19.596Z,0
2017-04-25T00:15:41.828Z,0
2017-04-25T00:17:04.329Z,0
2017-04-25T00:18:26.223Z,0
2017-04-25T00:19:48.760Z,0
2017-04-25T00:21:11.271Z,0
2017-04-25T00:22:33.581Z,0
2017-04-25T00:23:56.089Z,0
2017-04-25T00:25:17.668Z,0
2017-04-25T00:26:38.885Z,0
2017-04-25T00:28:00.750Z,0
2017-04-25T00:29:22.931Z,0
2017-04-25T00:30:45.148Z,0
2017-04-25T00:32:07.012Z,0
2017-04-25T00:33:28.880Z,0
2017-04-25T00:34:50.737Z,0
2017-04-25T00:36:12.868Z,0
2017-04-25T00:37:33.774Z,0
2017-04-25T00:38:55.649Z,0
2017-04-25T00:40:17.228Z,0
2017-04-25T00:41:38.841Z,0
2017-04-25T00:43:01.348Z,0
2017-04-25T00:44:23.213Z,0
2017-04-25T00:45:45.063Z,0
2017-04-25T00:47:07.237Z,0
2017-04-25T00:48:29.247Z,0
2017-04-25T00:49:51.201Z,0
2017-04-25T00:51:12.740Z,0
2017-04-25T00:52:34.958Z,0
2017-04-25T00:53:56.929Z,0
2017-04-25T00:55:19.133Z,0
2017-04-25T00:56:41.003Z,0
2017-04-25T00:58:03.240Z,0
2017-04-25T00:59:25.186Z,0
2017-04-25T01:00:46.726Z,0
2017-04-25T01:02:07.951Z,0
2017-04-25T01:03:29.733Z,0
2017-04-25T01:04:51.688Z,0
2017-04-25T01:06:13.569Z,0
2017-04-25T01:07:35.436Z,0
2017-04-25T01:08:57.639Z,0
2017-04-25T01:10:19.524Z,0
2017-04-25T01:11:41.399Z,0
2017-04-25T01:13:03.908Z,0
2017-04-25T01:14:26.109Z,0
2017-04-25T01:15:48.321Z,0
2017-04-25T01:17:10.189Z,0
2017-04-25T01:18:32.041Z,0
2017-04-25T01:19:54.476Z,0
2017-04-25T01:21:16.019Z,0
2017-04-25T01:22:38.319Z,0
2017-04-25T01:23:59.548Z,0
2017-04-25T01:25:21.761Z,0
2017-04-25T01:26:43.623Z,0
2017-04-25T01:28:05.817Z,0
2017-04-25T01:29:28.309Z,0
2017-04-25T01:30:50.528Z,0
2017-04-25T01:32:12.394Z,0
2017-04-25T01:33:34.331Z,0
2017-04-25T01:34:56.610Z,0
2017-04-25T01:36:19.050Z,0
2017-04-25T01:37:40.340Z,0
2017-04-25T01:39:02.529Z,0
2017-04-25T01:40:24.087Z,0
2017-04-25T01:41:46.624Z,0
2017-04-25T01:43:08.914Z,0
2017-04-25T01:44:31.078Z,0
2017-04-25T01:45:53.094Z,0
2017-04-25T01:47:15.858Z,0
2017-04-25T01:48:37.723Z,0
2017-04-25T01:49:59.309Z,0
2017-04-25T01:51:21.299Z,0
2017-04-25T01:52:42.970Z,0
2017-04-25T01:54:04.867Z,0
2017-04-25T01:55:26.403Z,0
2017-04-25T01:56:48.568Z,0
2017-04-25T01:58:10.677Z,0
2017-04-25T01:59:32.858Z,0
2017-04-25T02:00:54.134Z,0
2017-04-25T02:02:16.021Z,0
2017-04-25T02:03:38.571Z,0
2017-04-25T02:05:00.112Z,0
2017-04-25T02:06:22.010Z,0
2017-04-25T02:07:43.878Z,0
2017-04-25T02:09:06.372Z,0
2017-04-25T02:10:27.951Z,0
2017-04-25T02:11:49.578Z,0
2017-04-25T02:13:11.240Z,0
2017-04-25T02:14:33.832Z,0
2017-04-25T02:15:56.008Z,0
2017-04-25T02:17:17.661Z,0
2017-04-25T02:18:39.929Z,0
2017-04-25T02:20:01.791Z,0
2017-04-25T02:21:24.059Z,0
2017-04-25T02:22:46.248Z,0
2017-04-25T02:24:07.451Z,0
2017-04-25T02:25:28.975Z,0
2017-04-25T02:26:51.162Z,0
2017-04-25T02:28:13.659Z,0
2017-04-25T02:29:35.533Z,0
2017-04-25T02:30:58.309Z,0
2017-04-25T02:32:20.868Z,0
2017-04-25T02:33:43.080Z,0
2017-04-25T02:35:05.322Z,0
2017-04-25T02:36:27.438Z,0
2017-04-25T02:37:49.358Z,0
2017-04-25T02:39:11.049Z,0
2017-04-25T02:40:32.596Z,0
2017-04-25T02:41:54.883Z,0
2017-04-25T02:43:16.747Z,0
2017-04-25T02:44:38.948Z,0
2017-04-25T02:46:01.139Z,0
2017-04-25T02:47:23.898Z,0
2017-04-25T02:48:45.781Z,0
2017-04-25T02:50:07.959Z,0
2017-04-25T02:51:29.838Z,0
2017-04-25T02:52:51.948Z,0
2017-04-25T02:54:14.177Z,0
2017-04-25T02:55:36.710Z,0
2017-04-25T02:56:58.248Z,0
2017-04-25T02:58:20.428Z,0
2017-04-25T02:59:42.610Z,0
2017-04-25T03:01:04.498Z,0
2017-04-25T03:02:26.681Z,0
2017-04-25T03:03:48.806Z,0
2017-04-25T03:05:10.998Z,0
2017-04-25T03:06:32.318Z,0
2017-04-25T03:07:53.858Z,0
2017-04-25T03:09:16.278Z,0
2017-04-25T03:10:38.159Z,0
2017-04-25T03:12:00.045Z,0
2017-04-25T03:13:22.035Z,0
2017-04-25T03:14:44.527Z,0
2017-04-25T03:16:05.799Z,0
2017-04-25T03:17:27.328Z,0
2017-04-25T03:18:48.887Z,0
2017-04-25T03:20:11.008Z,0
2017-04-25T03:21:32.238Z,0
2017-04-25T03:22:54.424Z,0
2017-04-25T03:24:16.318Z,0
2017-04-25T03:25:38.175Z,0
2017-04-25T03:26:59.749Z,0
2017-04-25T03:28:21.932Z,0
2017-04-25T03:29:44.229Z,0
2017-04-25T03:31:07.100Z,0
2017-04-25T03:32:28.335Z,0
2017-04-25T03:33:49.988Z,0
2017-04-25T03:35:12.260Z,0
2017-04-25T03:36:34.938Z,0
2017-04-25T03:37:56.838Z,0
2017-04-25T03:39:18.710Z,0
2017-04-25T03:40:40.312Z,0
2017-04-25T03:42:02.220Z,0
2017-04-25T03:43:23.471Z,0
2017-04-25T03:44:45.060Z,0
2017-04-25T03:46:06.997Z,0
2017-04-25T03:47:29.525Z,0
2017-04-25T03:48:51.398Z,0
2017-04-25T03:50:12.624Z,0
2017-04-25T03:51:34.480Z,0
2017-04-25T03:52:57.019Z,0
2017-04-25T03:54:18.899Z,0
2017-04-25T03:55:41.093Z,0
2017-04-25T03:57:02.978Z,0
2017-04-25T03:58:25.229Z,0
2017-04-25T03:59:46.826Z,0
2017-04-25T04:01:09.040Z,0
2017-04-25T04:02:31.559Z,0
2017-04-25T04:03:53.760Z,0
2017-04-25T04:05:15.738Z,0
2017-04-25T04:06:36.956Z,0
2017-04-25T04:07:58.836Z,0
2017-04-25T04:09:21.381Z,5
2017-04-25T04:10:43.588Z,0
2017-04-25T04:12:05.444Z,0
2017-04-25T04:13:27.309Z,0
2017-04-25T04:14:49.488Z,0
2017-04-25T04:16:11.669Z,0
2017-04-25T04:17:33.259Z,0
2017-04-25T04:18:55.864Z,0
2017-04-25T04:20:17.717Z,5
2017-04-25T04:21:39.274Z,5
2017-04-25T04:23:01.450Z,10
2017-04-25T04:24:24.001Z,10
2017-04-25T04:25:46.427Z,10
2017-04-25T04:27:08.388Z,10
2017-04-25T04:28:29.945Z,5
2017-04-25T04:29:51.861Z,5
2017-04-25T04:31:14.371Z,5
2017-04-25T04:32:35.598Z,10
2017-04-25T04:33:57.456Z,10
2017-04-25T04:35:19.107Z,15
2017-04-25T04:36:41.599Z,15
2017-04-25T04:38:03.889Z,10
2017-04-25T04:39:26.149Z,15
2017-04-25T04:40:48.352Z,15
2017-04-25T04:42:10.517Z,10
2017-04-25T04:43:32.420Z,15
2017-04-25T04:44:54.308Z,15
2017-04-25T04:46:16.509Z,15
2017-04-25T04:47:38.039Z,15
2017-04-25T04:48:59.917Z,15
2017-04-25T04:50:21.464Z,15
2017-04-25T04:51:43.997Z,20
2017-04-25T04:53:06.135Z,20
2017-04-25T04:54:28.038Z,20
2017-04-25T04:55:49.927Z,20
2017-04-25T04:57:11.498Z,25
2017-04-25T04:58:34.289Z,35
2017-04-25T04:59:56.259Z,30
2017-04-25T05:01:18.438Z,30
2017-04-25T05:02:40.318Z,30
2017-04-25T05:04:02.550Z,30
2017-04-25T05:05:24.891Z,25
2017-04-25T05:06:46.494Z,25
2017-04-25T05:08:08.684Z,20
2017-04-25T05:09:30.599Z,35
2017-04-25T05:10:52.787Z,25
2017-04-25T05:12:14.703Z,15
2017-04-25T05:13:36.901Z,15
2017-04-25T05:14:58.710Z,20
2017-04-25T05:16:20.906Z,30
2017-04-25T05:17:42.779Z,25
2017-04-25T05:19:04.990Z,25
2017-04-25T05:20:27.518Z,40
2017-04-25T05:21:49.458Z,55
2017-04-25T05:23:11.011Z,65
2017-04-25T05:24:33.510Z,65
2017-04-25T05:25:55.734Z,60
2017-04-25T05:27:17.606Z,55
2017-04-25T05:28:39.899Z,50
2017-04-25T05:30:01.806Z,60
2017-04-25T05:31:24.244Z,50
2017-04-25T05:32:46.433Z,35
2017-04-25T05:34:08.648Z,40
2017-04-25T05:35:30.528Z,40
2017-04-25T05:36:52.681Z,30
2017-04-25T05:38:14.887Z,45
2017-04-25T05:39:36.775Z,70
2017-04-25T05:40:58.638Z,105
2017-04-25T05:42:20.879Z,120
2017-04-25T05:43:42.478Z,135
2017-04-25T05:45:04.990Z,140
2017-04-25T05:46:27.585Z,170
2017-04-25T05:47:50.221Z,170
2017-04-25T05:49:12.105Z,170
2017-04-25T05:50:34.047Z,185
2017-04-25T05:51:55.660Z,435
2017-04-25T05:53:17.793Z,260
2017-04-25T05:54:39.995Z,545
2017-04-25T05:56:01.218Z,505
2017-04-25T05:57:23.111Z,240
2017-04-25T05:58:45.331Z,270
2017-04-25T06:00:07.549Z,235
2017-04-25T06:01:29.098Z,225
2017-04-25T06:02:50.644Z,265
2017-04-25T06:04:12.800Z,260
2017-04-25T06:05:35.227Z,260
2017-04-25T06:06:57.109Z,265
2017-04-25T06:08:18.651Z,260
2017-04-25T06:09:41.208Z,225
2017-04-25T06:11:03.608Z,230
2017-04-25T06:12:26.071Z,210
2017-04-25T06:13:47.898Z,295
2017-04-25T06:15:10.295Z,280
2017-04-25T06:16:32.127Z,290
2017-04-25T06:17:53.969Z,295
2017-04-25T06:19:15.507Z,300
2017-04-25T06:20:37.649Z,240
2017-04-25T06:21:59.799Z,205
2017-04-25T06:23:21.621Z,235
2017-04-25T06:24:43.826Z,235
2017-04-25T06:26:06.226Z,240
2017-04-25T06:27:28.379Z,230
2017-04-25T06:28:50.838Z,270
2017-04-25T06:30:13.381Z,330
2017-04-25T06:31:35.811Z,215
2017-04-25T06:32:57.663Z,305
2017-04-25T06:34:20.128Z,285
2017-04-25T06:35:42.008Z,305
2017-04-25T06:37:04.470Z,365
2017-04-25T06:38:26.314Z,380
2017-04-25T06:39:48.161Z,355
2017-04-25T06:41:10.298Z,395
2017-04-25T06:42:33.120Z,230
2017-04-25T06:43:54.338Z,245
2017-04-25T06:45:16.169Z,290
2017-04-25T06:46:38.417Z,250
2017-04-25T06:48:00.808Z,250
2017-04-25T06:49:22.948Z,480
2017-04-25T06:50:45.106Z,445
2017-04-25T06:52:07.266Z,515
2017-04-25T06:53:28.836Z,475
2017-04-25T06:54:50.038Z,575
2017-04-25T06:56:11.878Z,555
2017-04-25T06:57:34.037Z,530
2017-04-25T06:58:56.288Z,540
2017-04-25T07:00:18.187Z,630
2017-04-25T07:01:40.037Z,545
2017-04-25T07:03:02.501Z,285
2017-04-25T07:04:25.010Z,350
2017-04-25T07:05:47.198Z,485
2017-04-25T07:07:08.708Z,270
2017-04-25T07:08:30.868Z,605
2017-04-25T07:09:53.688Z,405
2017-04-25T07:11:15.967Z,255
2017-04-25T07:12:37.206Z,580
2017-04-25T07:13:59.440Z,505
2017-04-25T07:15:21.969Z,455
2017-04-25T07:16:43.161Z,465
2017-04-25T07:18:04.668Z,400
2017-04-25T07:19:26.855Z,510
2017-04-25T07:20:49.065Z,455
2017-04-25T07:22:10.898Z,550
2017-04-25T07:23:32.748Z,340
2017-04-25T07:24:55.218Z,290
2017-04-25T07:26:16.366Z,600
2017-04-25T07:27:38.218Z,395
2017-04-25T07:28:59.474Z,390
2017-04-25T07:30:21.749Z,355
2017-04-25T07:31:43.568Z,245
2017-04-25T07:33:05.408Z,285
2017-04-25T07:34:27.869Z,290
2017-04-25T07:35:49.785Z,645
2017-04-25T07:37:12.298Z,670
2017-04-25T07:38:34.769Z,350
2017-04-25T07:39:57.266Z,355
2017-04-25T07:41:19.420Z,295
2017-04-25T07:42:41.570Z,720
2017-04-25T07:44:03.407Z,485
2017-04-25T07:45:25.407Z,485
2017-04-25T07:46:47.258Z,580
2017-04-25T07:48:09.707Z,435
2017-04-25T07:49:31.879Z,535
2017-04-25T07:50:53.785Z,480
2017-04-25T07:52:15.989Z,420
2017-04-25T07:53:38.248Z,475
2017-04-25T07:55:00.130Z,310
2017-04-25T07:56:21.950Z,280
2017-04-25T07:57:44.438Z,310
2017-04-25T07:59:06.598Z,365
2017-04-25T08:00:29.072Z,350
2017-04-25T08:01:51.343Z,285
2017-04-25T08:03:13.516Z,225
2017-04-25T08:04:36.047Z,275
2017-04-25T08:05:57.577Z,315
2017-04-25T08:07:20.052Z,395
2017-04-25T08:08:42.199Z,330
2017-04-25T08:10:04.740Z,350
2017-04-25T08:11:26.568Z,325
2017-04-25T08:12:47.757Z,365
2017-04-25T08:14:09.917Z,360
2017-04-25T08:15:32.065Z,355
2017-04-25T08:16:53.279Z,370
2017-04-25T08:18:14.799Z,375
2017-04-25T08:19:37.307Z,415
2017-04-25T08:20:59.769Z,450
2017-04-25T08:22:22.218Z,440
2017-04-25T08:23:44.532Z,390
2017-04-25T08:25:06.717Z,295
2017-04-25T08:26:28.499Z,270
2017-04-25T08:27:50.328Z,300
2017-04-25T08:29:12.492Z,335
2017-04-25T08:30:34.459Z,290
2017-04-25T08:31:56.736Z,230
2017-04-25T08:33:18.949Z,240
2017-04-25T08:34:41.097Z,285
2017-04-25T08:36:03.568Z,280
2017-04-25T08:37:25.757Z,300
2017-04-25T08:38:47.698Z,300
2017-04-25T08:40:09.919Z,275
2017-04-25T08:41:31.767Z,280
2017-04-25T08:42:54.507Z,315
2017-04-25T08:44:16.680Z,365
2017-04-25T08:45:38.557Z,435
2017-04-25T08:47:01.138Z,370
2017-04-25T08:48:23.618Z,340
2017-04-25T08:49:45.808Z,325
2017-04-25T08:51:07.635Z,305
2017-04-25T08:52:28.527Z,300
2017-04-25T08:53:50.191Z,250
2017-04-25T08:55:12.021Z,230
2017-04-25T08:56:33.889Z,225
2017-04-25T08:57:55.421Z,215
2017-04-25T08:59:18.156Z,230
2017-04-25T09:00:40.405Z,240
2017-04-25T09:02:02.546Z,275
2017-04-25T09:03:24.708Z,290
2017-04-25T09:04:47.450Z,320
2017-04-25T09:06:09.939Z,360
2017-04-25T09:07:32.119Z,395
2017-04-25T09:08:54.268Z,420
2017-04-25T09:10:16.161Z,305
2017-04-25T09:11:37.380Z,250
2017-04-25T09:12:59.217Z,285
2017-04-25T09:14:21.397Z,300
2017-04-25T09:15:43.313Z,275
2017-04-25T09:17:05.495Z,310
2017-04-25T09:18:27.106Z,305
2017-04-25T09:19:48.669Z,270
2017-04-25T09:21:11.058Z,230
2017-04-25T09:22:33.506Z,245
2017-04-25T09:23:55.981Z,285
2017-04-25T09:25:18.539Z,280
2017-04-25T09:26:40.709Z,305
2017-04-25T09:28:02.213Z,335
2017-04-25T09:29:23.737Z,415
2017-04-25T09:30:45.254Z,365
2017-04-25T09:32:07.349Z,330
2017-04-25T09:33:29.807Z,210
2017-04-25T09:34:51.628Z,170
2017-04-25T09:36:13.522Z,185
2017-04-25T09:37:35.622Z,220
2017-04-25T09:38:57.482Z,260
2017-04-25T09:40:19.347Z,295
2017-04-25T09:41:41.180Z,315
2017-04-25T09:43:03.286Z,320
2017-04-25T09:44:25.166Z,390
2017-04-25T09:45:47.308Z,480
2017-04-25T09:47:08.829Z,400
2017-04-25T09:48:31.288Z,305
2017-04-25T09:49:53.437Z,200
2017-04-25T09:51:15.588Z,180
2017-04-25T09:52:37.105Z,150
2017-04-25T09:53:59.423Z,80
2017-04-25T09:55:21.277Z,75
2017-04-25T09:56:43.096Z,105
2017-04-25T09:58:04.607Z,150
2017-04-25T09:59:26.695Z,175
2017-04-25T10:00:48.978Z,170
2017-04-25T10:02:10.525Z,170
2017-04-25T10:03:32.046Z,160
2017-04-25T10:04:54.807Z,205
2017-04-25T10:06:16.630Z,245
2017-04-25T10:07:38.806Z,255
2017-04-25T10:09:00.339Z,235
2017-04-25T10:10:23.339Z,200
2017-04-25T10:11:45.840Z,160
2017-04-25T10:13:07.987Z,145
2017-04-25T10:14:29.838Z,125
2017-04-25T10:15:52.735Z,130
2017-04-25T10:17:14.570Z,105
2017-04-25T10:18:36.769Z,80
2017-04-25T10:19:58.924Z,110
2017-04-25T10:21:20.740Z,145
2017-04-25T10:22:41.933Z,185
2017-04-25T10:24:04.398Z,205
2017-04-25T10:25:26.549Z,225
2017-04-25T10:26:48.735Z,265
2017-04-25T10:28:10.280Z,295
2017-04-25T10:29:32.109Z,310
2017-04-25T10:30:53.927Z,340
2017-04-25T10:32:16.537Z,335
2017-04-25T10:33:38.697Z,310
2017-04-25T10:35:01.177Z,320
2017-04-25T10:36:23.000Z,355
2017-04-25T10:37:45.510Z,490
2017-04-25T10:39:07.450Z,465
2017-04-25T10:40:29.910Z,495
2017-04-25T10:41:52.430Z,560
2017-04-25T10:43:14.579Z,485
2017-04-25T10:44:36.226Z,430
2017-04-25T10:45:58.358Z,430
2017-04-25T10:47:20.576Z,390
2017-04-25T10:48:43.078Z,330
2017-04-25T10:50:04.997Z,240
2017-04-25T10:51:26.805Z,200
2017-04-25T10:52:48.950Z,205
2017-04-25T10:54:11.677Z,235
2017-04-25T10:55:33.500Z,275
2017-04-25T10:56:55.651Z,295
2017-04-25T10:58:17.168Z,355
2017-04-25T10:59:38.997Z,390
2017-04-25T11:01:00.518Z,420
2017-04-25T11:02:23.098Z,420
2017-04-25T11:03:45.708Z,420
2017-04-25T11:05:07.958Z,420
2017-04-25T11:06:29.801Z,425
2017-04-25T11:07:51.638Z,420
2017-04-25T11:09:13.154Z,385
2017-04-25T11:10:35.956Z,320
2017-04-25T11:11:57.788Z,280
2017-04-25T11:13:19.941Z,265
2017-04-25T11:14:42.445Z,290
2017-04-25T11:16:05.308Z,315
2017-04-25T11:17:27.827Z,320
2017-04-25T11:18:49.363Z,370
2017-04-25T11:20:11.197Z,370
2017-04-25T11:21:33.268Z,380
2017-04-25T11:22:55.447Z,470
2017-04-25T11:24:17.596Z,455
2017-04-25T11:25:39.135Z,490
2017-04-25T11:27:01.247Z,400
2017-04-25T11:28:23.414Z,380
2017-04-25T11:29:45.240Z,400
2017-04-25T11:31:07.422Z,400
2017-04-25T11:32:29.639Z,365
2017-04-25T11:33:51.841Z,355
2017-04-25T11:35:13.676Z,340
2017-04-25T11:36:35.196Z,365
2017-04-25T11:37:57.017Z,390
2017-04-25T11:39:19.200Z,385
2017-04-25T11:40:41.028Z,345
2017-04-25T11:42:02.548Z,310
2017-04-25T11:43:24.747Z,305
2017-04-25T11:44:47.261Z,315
2017-04-25T11:46:09.739Z,300
2017-04-25T11:47:31.932Z,280
2017-04-25T11:48:54.343Z,285
2017-04-25T11:50:16.807Z,305
2017-04-25T11:51:38.660Z,310
2017-04-25T11:53:00.499Z,330
2017-04-25T11:54:22.766Z,395
2017-04-25T11:55:45.101Z,470
2017-04-25T11:57:06.951Z,450
2017-04-25T11:58:28.488Z,415
2017-04-25T11:59:51.301Z,280
2017-04-25T12:01:12.494Z,190
2017-04-25T12:02:34.957Z,180
2017-04-25T12:03:57.208Z,200
2017-04-25T12:05:19.365Z,210
2017-04-25T12:06:41.558Z,185
2017-04-25T12:08:03.795Z,175
2017-04-25T12:09:25.667Z,175
2017-04-25T12:10:48.131Z,190
2017-04-25T12:12:10.360Z,195
2017-04-25T12:13:32.378Z,195
2017-04-25T12:14:54.948Z,200
2017-04-25T12:16:17.060Z,205
2017-04-25T12:17:38.572Z,215
2017-04-25T12:19:00.420Z,240
2017-04-25T12:20:22.367Z,250
2017-04-25T12:21:44.899Z,230
2017-04-25T12:23:06.200Z,255
2017-04-25T12:24:28.033Z,255
2017-04-25T12:25:49.878Z,305
2017-04-25T12:27:12.018Z,320
2017-04-25T12:28:34.186Z,315
2017-04-25T12:29:56.068Z,325
2017-04-25T12:31:18.537Z,330
2017-04-25T12:32:40.669Z,330
2017-04-25T12:34:02.987Z,345
2017-04-25T12:35:25.146Z,350
2017-04-25T12:36:47.308Z,365
2017-04-25T12:38:09.499Z,360
2017-04-25T12:39:31.362Z,355
2017-04-25T12:40:53.815Z,310
2017-04-25T12:42:15.658Z,315
2017-04-25T12:43:37.742Z,340
2017-04-25T12:44:59.938Z,345
2017-04-25T12:46:22.394Z,445
2017-04-25T12:47:44.238Z,440
2017-04-25T12:49:07.017Z,395
2017-04-25T12:50:29.213Z,320
2017-04-25T12:51:50.719Z,270
2017-04-25T12:53:13.180Z,260
2017-04-25T12:54:35.729Z,230
2017-04-25T12:55:57.650Z,205
2017-04-25T12:57:19.509Z,195
2017-04-25T12:58:41.370Z,215
2017-04-25T13:00:03.818Z,225
2017-04-25T13:01:25.661Z,255
2017-04-25T13:02:47.583Z,265
2017-04-25T13:04:10.070Z,225
2017-04-25T13:05:32.379Z,205
2017-04-25T13:06:54.577Z,205
2017-04-25T13:08:16.752Z,210
2017-04-25T13:09:38.654Z,225
2017-04-25T13:11:00.457Z,245
2017-04-25T13:12:21.680Z,270
2017-04-25T13:13:44.165Z,300
2017-04-25T13:15:06.019Z,330
2017-04-25T13:16:28.108Z,350
2017-04-25T13:17:49.643Z,355
2017-04-25T13:19:12.130Z,355
2017-04-25T13:20:34.320Z,345
2017-04-25T13:21:56.106Z,340
2017-04-25T13:23:18.374Z,340
2017-04-25T13:24:40.646Z,340
2017-04-25T13:26:02.881Z,325
2017-04-25T13:27:25.039Z,320
2017-04-25T13:28:47.570Z,305
2017-04-25T13:30:09.954Z,305
2017-04-25T13:31:32.428Z,310
2017-04-25T13:32:54.972Z,325
2017-04-25T13:34:16.822Z,340
2017-04-25T13:35:39.012Z,365
2017-04-25T13:37:00.868Z,390
2017-04-25T13:38:23.400Z,385
2017-04-25T13:39:45.884Z,385
2017-04-25T13:41:08.049Z,365
2017-04-25T13:42:29.287Z,275
2017-04-25T13:43:51.387Z,235
2017-04-25T13:45:13.536Z,285
2017-04-25T13:46:35.408Z,370
2017-04-25T13:47:57.265Z,410
2017-04-25T13:49:19.938Z,375
2017-04-25T13:50:42.462Z,310
2017-04-25T13:52:04.304Z,245
2017-04-25T13:53:26.768Z,200
2017-04-25T13:54:49.320Z,180
2017-04-25T13:56:11.171Z,170
2017-04-25T13:57:33.320Z,170
2017-04-25T13:58:55.501Z,170
2017-04-25T14:00:18.128Z,170
2017-04-25T14:01:40.356Z,170
2017-04-25T14:03:02.181Z,170
2017-04-25T14:04:23.712Z,170
2017-04-25T14:05:46.648Z,170
2017-04-25T14:07:08.820Z,175
2017-04-25T14:08:30.719Z,180
2017-04-25T14:09:52.647Z,185
2017-04-25T14:11:15.577Z,195
2017-04-25T14:12:37.398Z,210
2017-04-25T14:13:58.910Z,205
2017-04-25T14:15:21.128Z,190
2017-04-25T14:16:42.588Z,210
2017-04-25T14:18:05.123Z,225
2017-04-25T14:19:27.273Z,270
2017-04-25T14:20:49.425Z,270
2017-04-25T14:22:11.921Z,240
2017-04-25T14:23:33.757Z,275
2017-04-25T14:24:55.766Z,300
2017-04-25T14:26:17.681Z,285
2017-04-25T14:27:40.228Z,250
2017-04-25T14:29:02.829Z,255
2017-04-25T14:30:24.489Z,255
2017-04-25T14:31:46.325Z,270
2017-04-25T14:33:08.744Z,285
2017-04-25T14:34:31.040Z,270
2017-04-25T14:35:53.291Z,250
2017-04-25T14:37:15.138Z,260
2017-04-25T14:38:37.610Z,275
2017-04-25T14:39:59.536Z,290
2017-04-25T14:41:21.795Z,290
2017-04-25T14:42:44.284Z,295
2017-04-25T14:44:06.727Z,275
2017-04-25T14:45:29.208Z,255
2017-04-25T14:46:51.358Z,245
2017-04-25T14:48:13.517Z,245
2017-04-25T14:49:35.347Z,240
2017-04-25T14:50:56.558Z,245
2017-04-25T14:52:18.395Z,255
2017-04-25T14:53:40.568Z,250
2017-04-25T14:55:03.315Z,215
2017-04-25T14:56:25.166Z,160
2017-04-25T14:57:47.668Z,140
2017-04-25T14:59:09.509Z,135
2017-04-25T15:00:32.217Z,130
2017-04-25T15:01:54.714Z,140
2017-04-25T15:03:16.546Z,170
2017-04-25T15:04:38.387Z,175
2017-04-25T15:06:00.484Z,160
2017-04-25T15:07:23.007Z,150
2017-04-25T15:08:45.270Z,155
2017-04-25T15:10:07.117Z,160
2017-04-25T15:11:29.684Z,165
2017-04-25T15:12:51.517Z,165
2017-04-25T15:14:13.977Z,155
2017-04-25T15:15:36.459Z,170
2017-04-25T15:16:58.646Z,200
2017-04-25T15:18:20.515Z,250
2017-04-25T15:19:42.522Z,280
2017-04-25T15:21:05.045Z,305
2017-04-25T15:22:27.946Z,305
2017-04-25T15:23:49.479Z,280
2017-04-25T15:25:11.308Z,240
2017-04-25T15:26:33.158Z,220
2017-04-25T15:27:55.587Z,240
2017-04-25T15:29:17.438Z,245
2017-04-25T15:30:39.940Z,225
2017-04-25T15:32:02.160Z,195
2017-04-25T15:33:24.935Z,175
2017-04-25T15:34:47.086Z,150
2017-04-25T15:36:09.559Z,125
2017-04-25T15:37:32.048Z,115
2017-04-25T15:38:54.555Z,130
2017-04-25T15:40:16.375Z,150
2017-04-25T15:41:38.268Z,140
2017-04-25T15:43:00.730Z,125
2017-04-25T15:44:22.986Z,115
2017-04-25T15:45:45.166Z,115
2017-04-25T15:47:07.437Z,140
2017-04-25T15:48:28.990Z,200
2017-04-25T15:49:51.838Z,240
2017-04-25T15:51:14.036Z,260
2017-04-25T15:52:36.549Z,255
2017-04-25T15:53:58.414Z,260
2017-04-25T15:55:20.675Z,275
2017-04-25T15:56:42.836Z,275
2017-04-25T15:58:05.037Z,250
2017-04-25T15:59:27.196Z,200
2017-04-25T16:01:21.585Z,175
2017-04-25T16:02:44.149Z,150
2017-04-25T16:04:07.045Z,145
2017-04-25T16:05:29.892Z,145
2017-04-25T16:06:51.751Z,140
2017-04-25T16:08:13.918Z,135
2017-04-25T16:09:35.767Z,135
2017-04-25T16:10:58.485Z,145
2017-04-25T16:12:20.346Z,155
2017-04-25T16:13:42.203Z,160
2017-04-25T16:15:04.715Z,145
2017-04-25T16:16:27.116Z,130
2017-04-25T16:17:48.639Z,120
2017-04-25T16:19:11.117Z,105
2017-04-25T16:20:33.608Z,100
2017-04-25T16:21:56.026Z,100
2017-04-25T16:23:17.875Z,100
2017-04-25T16:24:40.358Z,110
2017-04-25T16:26:02.215Z,125
2017-04-25T16:27:24.745Z,145
2017-04-25T16:28:46.915Z,150
2017-04-25T16:30:09.125Z,150
2017-04-25T16:31:31.377Z,155
2017-04-25T16:32:53.946Z,155
2017-04-25T16:34:15.816Z,145
2017-04-25T16:35:37.950Z,135
2017-04-25T16:36:59.796Z,125
2017-04-25T16:38:22.010Z,130
2017-04-25T16:39:44.178Z,130
2017-04-25T16:41:06.386Z,130
2017-04-25T16:42:28.638Z,125
2017-04-25T16:43:50.732Z,120
2017-04-25T16:45:12.645Z,115
2017-04-25T16:46:35.119Z,115
2017-04-25T16:47:57.599Z,150
2017-04-25T16:49:20.016Z,155
2017-04-25T16:50:42.234Z,145
2017-04-25T16:52:04.391Z,135
2017-04-25T16:53:26.307Z,115
2017-04-25T16:54:48.897Z,110
2017-04-25T16:56:11.066Z,105
2017-04-25T16:57:33.546Z,100
2017-04-25T16:58:55.756Z,95
2017-04-25T17:00:18.145Z,95
2017-04-25T17:01:40.321Z,100
2017-04-25T17:03:01.837Z,105
2017-04-25T17:04:22.714Z,110
2017-04-25T17:05:45.162Z,95
2017-04-25T17:07:07.048Z,90
2017-04-25T17:08:29.276Z,90
2017-04-25T17:09:51.485Z,85
2017-04-25T17:11:13.366Z,90
2017-04-25T17:12:35.246Z,105
2017-04-25T17:13:57.580Z,110
2017-04-25T17:15:18.790Z,110
2017-04-25T17:16:41.713Z,105
2017-04-25T17:18:03.879Z,105
2017-04-25T17:19:26.044Z,105
2017-04-25T17:20:48.191Z,100
2017-04-25T17:22:10.980Z,95
2017-04-25T17:23:32.532Z,85
2017-04-25T17:24:55.107Z,80
2017-04-25T17:26:17.601Z,80
2017-04-25T17:27:40.328Z,80
2017-04-25T17:29:02.899Z,75
2017-04-25T17:30:25.414Z,70
2017-04-25T17:31:47.259Z,65
2017-04-25T17:33:09.406Z,60
2017-04-25T17:34:30.936Z,55
2017-04-25T17:35:52.785Z,50
2017-04-25T17:37:14.988Z,50
2017-04-25T17:38:37.716Z,50
2017-04-25T17:39:59.576Z,55
2017-04-25T17:41:21.733Z,60
2017-04-25T17:42:43.879Z,70
2017-04-25T17:44:05.981Z,100
2017-04-25T17:45:28.149Z,150
2017-04-25T17:46:50.357Z,195
2017-04-25T17:48:12.518Z,185
2017-04-25T17:49:35.491Z,135
2017-04-25T17:50:57.692Z,110
2017-04-25T17:52:20.195Z,95
2017-04-25T17:53:42.747Z,75
2017-04-25T17:55:05.496Z,70
2017-04-25T17:56:27.340Z,65
2017-04-25T17:57:49.871Z,60
2017-04-25T17:59:12.389Z,55
2017-04-25T18:01:06.949Z,55
2017-04-25T18:02:29.106Z,55
2017-04-25T18:03:51.586Z,50
2017-04-25T18:05:14.357Z,50
2017-04-25T18:06:36.509Z,45
2017-04-25T18:07:58.437Z,45
2017-04-25T18:09:19.968Z,45
2017-04-25T18:10:42.405Z,40
2017-04-25T18:12:04.559Z,40
2017-04-25T18:13:26.809Z,35
2017-04-25T18:14:49.292Z,35
2017-04-25T18:16:12.070Z,30
2017-04-25T18:17:34.380Z,30
2017-04-25T18:18:56.641Z,30
2017-04-25T18:20:19.026Z,25
2017-04-25T18:21:41.648Z,25
2017-04-25T18:23:03.848Z,25
2017-04-25T18:24:26.049Z,20
2017-04-25T18:25:48.588Z,20
2017-04-25T18:27:11.329Z,20
2017-04-25T18:28:33.501Z,20
2017-04-25T18:29:55.701Z,15
2017-04-25T18:31:17.931Z,15
2017-04-25T18:32:40.039Z,15
2017-04-25T18:34:02.521Z,15
2017-04-25T18:35:25.073Z,10
2017-04-25T18:36:47.585Z,10
2017-04-25T18:38:10.067Z,10
2017-04-25T18:39:32.231Z,10
2017-04-25T18:40:54.763Z,10
2017-04-25T18:42:17.283Z,5
2017-04-25T18:43:40.029Z,5
2017-04-25T18:45:02.233Z,5
2017-04-25T18:46:24.493Z,5
2017-04-25T18:47:46.707Z,5
2017-04-25T18:49:09.146Z,0
2017-04-25T18:50:31.790Z,0
2017-04-25T18:51:53.669Z,0
2017-04-25T18:53:16.176Z,0
2017-04-25T18:54:38.308Z,0
2017-04-25T18:56:00.486Z,0
2017-04-25T18:57:22.890Z,0
2017-04-25T18:58:44.744Z,0
2017-04-25T19:00:06.863Z,0
2017-04-25T19:01:29.038Z,0
2017-04-25T19:02:51.388Z,0
2017-04-25T19:04:13.918Z,0
2017-04-25T19:05:36.813Z,0
2017-04-25T19:06:59.320Z,0
2017-04-25T19:08:21.843Z,0
2017-04-25T19:09:44.370Z,0
2017-04-25T19:11:06.919Z,0
2017-04-25T19:12:29.109Z,0
2017-04-25T19:13:51.628Z,0
2017-04-25T19:15:13.505Z,0
2017-04-25T19:16:35.639Z,0
2017-04-25T19:17:57.911Z,0